Time;durP1;ratioP1;P1;durP2;ratioP2;P2;SDS_P1;SDS_P2;PMS_P1;PMS_P2;Temp;Humidity;BMP_temperature;BMP_pressure;BME280_temperature;BME280_humidity;BME280_pressure;Samples;Min_cycle;Max_cycle;Signal;HPM_P1;HPM_P2
2023/10/04 00:00:52;;;;;;;7.38;2.00;;;15.80;98.10;;;;;;4249025;27;20039;-61
2023/10/04 00:02:55;;;;;;;9.50;2.78;;;15.80;97.90;;;;;;4267142;27;20385;-60
2023/10/04 00:04:58;;;;;;;12.35;2.42;;;15.80;97.80;;;;;;4267143;27;20042;-60
2023/10/04 00:07:04;;;;;;;7.28;2.13;;;15.80;98.30;;;;;;4267095;27;20466;-61
2023/10/04 00:09:06;;;;;;;10.70;2.38;;;15.70;97.70;;;;;;4231171;28;20490;-60
2023/10/04 00:11:14;;;;;;;8.68;1.80;;;15.70;97.70;;;;;;4267382;27;20050;-61
2023/10/04 00:13:16;;;;;;;8.10;2.13;;;15.70;98.10;;;;;;4267116;27;20424;-62
2023/10/04 00:15:20;;;;;;;8.77;2.40;;;15.60;97.80;;;;;;4266889;27;20129;-59
2023/10/04 00:17:22;;;;;;;6.93;2.55;;;15.70;98.00;;;;;;4266724;27;20130;-65
2023/10/04 00:19:24;;;;;;;7.07;2.38;;;15.70;98.10;;;;;;4266927;27;20047;-62
2023/10/04 00:21:29;;;;;;;8.93;2.13;;;15.60;98.10;;;;;;4267420;27;20121;-62
2023/10/04 00:23:31;;;;;;;;;;;15.60;98.10;;;;;;4267606;27;20066;-62
2023/10/04 00:25:34;;;;;;;7.55;2.03;;;15.60;97.80;;;;;;4267113;27;19923;-61
2023/10/04 00:27:40;;;;;;;9.52;2.72;;;15.60;98.20;;;;;;4267255;27;20202;-62
2023/10/04 00:29:45;;;;;;;8.77;2.45;;;15.50;98.00;;;;;;4267222;27;20082;-61
2023/10/04 00:31:47;;;;;;;11.60;2.25;;;15.50;98.30;;;;;;4266779;27;20043;-62
2023/10/04 00:33:50;;;;;;;14.57;2.45;;;15.50;98.10;;;;;;4266522;27;20270;-61
2023/10/04 00:35:52;;;;;;;6.90;2.03;;;15.60;98.10;;;;;;4266593;27;20051;-62
2023/10/04 00:37:57;;;;;;;9.60;2.58;;;15.50;97.90;;;;;;4266048;27;20464;-61
2023/10/04 00:39:59;;;;;;;13.45;2.63;;;15.50;97.80;;;;;;4266705;27;20456;-62
2023/10/04 00:42:03;;;;;;;9.95;2.60;;;15.50;98.10;;;;;;4266647;27;20069;-62
2023/10/04 00:44:07;;;;;;;7.03;2.15;;;15.40;97.90;;;;;;4266472;27;20126;-60
2023/10/04 00:46:09;;;;;;;6.10;2.13;;;15.40;98.10;;;;;;4266393;27;20435;-60
2023/10/04 00:48:15;;;;;;;6.10;1.88;;;15.40;98.10;;;;;;4266577;27;20047;-59
2023/10/04 00:50:22;;;;;;;8.45;2.30;;;15.40;98.20;;;;;;4266520;27;20066;-62
2023/10/04 00:52:25;;;;;;;8.30;2.50;;;15.40;98.40;;;;;;4265545;27;20059;-62
2023/10/04 00:54:29;;;;;;;10.30;2.50;;;15.40;98.20;;;;;;4265649;27;20046;-65
2023/10/04 00:56:32;;;;;;;8.50;2.22;;;15.30;98.30;;;;;;4266778;27;20111;-59
2023/10/04 00:58:35;;;;;;;8.50;2.50;;;15.30;98.70;;;;;;4266363;27;20074;-60
2023/10/04 01:00:41;;;;;;;10.07;2.47;;;15.30;98.70;;;;;;4266335;27;20051;-60
2023/10/04 01:02:47;;;;;;;10.88;2.92;;;15.30;98.50;;;;;;4266340;27;20464;-59
2023/10/04 01:04:49;;;;;;;11.65;2.50;;;15.30;98.40;;;;;;4265971;27;20111;-59
2023/10/04 01:06:52;;;;;;;10.38;2.38;;;15.30;99.00;;;;;;4265881;27;20126;-61
2023/10/04 01:08:55;;;;;;;7.60;1.98;;;15.30;98.50;;;;;;4247459;27;20122;-61
2023/10/04 01:10:58;;;;;;;5.63;2.03;;;15.30;98.80;;;;;;4265973;27;20065;-61
2023/10/04 01:13:05;;;;;;;8.93;2.15;;;15.20;99.00;;;;;;4265657;27;20488;-59
2023/10/04 01:15:54;;;;;;;10.73;2.40;;;15.20;98.60;;;;;;4265731;27;20081;-62
2023/10/04 01:17:35;;;;;;;;;;;15.20;99.10;;;;;;4248814;27;20480;-62
2023/10/04 01:19:38;;;;;;;9.43;2.40;;;15.20;98.80;;;;;;4266397;27;20014;-62
2023/10/04 01:21:40;;;;;;;8.40;2.63;;;15.20;98.90;;;;;;4265620;27;20050;-60
2023/10/04 01:23:45;;;;;;;4.63;1.73;;;15.20;98.90;;;;;;4265790;27;20053;-62
2023/10/04 01:25:48;;;;;;;9.57;2.63;;;15.20;98.80;;;;;;4265743;27;20046;-62
2023/10/04 01:27:51;;;;;;;8.93;2.70;;;15.20;98.70;;;;;;4265654;27;20053;-61
2023/10/04 01:29:53;;;;;;;9.50;3.25;;;15.20;98.70;;;;;;4265651;27;20042;-61
2023/10/04 01:31:55;;;;;;;9.60;2.60;;;15.20;99.00;;;;;;4265851;27;20050;-62
2023/10/04 01:33:58;;;;;;;10.98;2.60;;;15.10;98.70;;;;;;4265449;27;20053;-61
2023/10/04 01:36:00;;;;;;;9.43;2.67;;;15.10;98.90;;;;;;4247066;27;20054;-60
2023/10/04 01:38:06;;;;;;;10.50;2.67;;;15.10;99.00;;;;;;4265331;27;20046;-61
2023/10/04 01:40:12;;;;;;;9.95;2.92;;;15.10;99.00;;;;;;4247028;27;20047;-62
2023/10/04 01:42:14;;;;;;;14.35;2.58;;;15.10;99.40;;;;;;4265388;27;20051;-62
2023/10/04 01:44:17;;;;;;;12.95;2.72;;;15.10;98.80;;;;;;4265481;27;20035;-61
2023/10/04 01:46:19;;;;;;;8.20;2.45;;;15.10;98.70;;;;;;4265612;27;20053;-61
2023/10/04 01:48:22;;;;;;;10.10;3.00;;;15.10;98.70;;;;;;4265633;27;20367;-61
2023/10/04 01:50:24;;;;;;;12.60;2.38;;;15.20;99.20;;;;;;4264838;27;20039;-62
2023/10/04 01:52:26;;;;;;;9.60;2.88;;;15.10;99.00;;;;;;4265199;27;20099;-62
2023/10/04 01:54:28;;;;;;;14.40;2.80;;;15.10;99.10;;;;;;4265347;27;20540;-61
2023/10/04 01:56:32;;;;;;;12.88;3.28;;;15.10;98.80;;;;;;4265486;27;20149;-61
2023/10/04 01:58:37;;;;;;;10.30;2.33;;;15.00;98.70;;;;;;4265272;27;20392;-61
2023/10/04 02:00:39;;;;;;;;;;;15.00;99.10;;;;;;4266017;27;20125;-62
2023/10/04 02:02:41;;;;;;;8.55;2.30;;;15.00;99.30;;;;;;4247147;27;20454;-61
2023/10/04 02:04:51;;;;;;;10.77;2.75;;;15.00;99.10;;;;;;4265022;27;20091;-61
2023/10/04 02:06:53;;;;;;;10.95;2.72;;;14.90;99.00;;;;;;4265278;27;20066;-62
2023/10/04 02:08:55;;;;;;;9.02;2.47;;;14.90;99.20;;;;;;4264946;27;20046;-62
2023/10/04 02:10:57;;;;;;;9.38;2.70;;;14.90;99.40;;;;;;4265081;27;20043;-62
2023/10/04 02:13:08;;;;;;;11.95;3.13;;;14.80;98.90;;;;;;4264992;27;20043;-63
2023/10/04 02:15:17;;;;;;;9.85;2.85;;;14.80;99.20;;;;;;4264803;27;20046;-62
2023/10/04 02:17:20;;;;;;;9.57;3.50;;;14.80;99.20;;;;;;4264802;27;20058;-62
2023/10/04 02:19:22;;;;;;;15.00;3.40;;;14.80;99.40;;;;;;4264381;27;20039;-61
2023/10/04 02:21:26;;;;;;;8.93;2.47;;;14.80;99.40;;;;;;4265025;27;20043;-61
2023/10/04 02:23:29;;;;;;;17.17;3.35;;;14.90;99.40;;;;;;4265146;27;20046;-61
2023/10/04 02:25:32;;;;;;;12.45;2.97;;;14.90;99.10;;;;;;4264820;27;20441;-61
2023/10/04 02:27:35;;;;;;;15.38;3.25;;;14.90;99.10;;;;;;4264866;27;20042;-62
2023/10/04 02:29:39;;;;;;;7.95;2.30;;;14.90;99.10;;;;;;4264816;27;20050;-61
2023/10/04 02:31:44;;;;;;;16.75;3.17;;;14.90;99.20;;;;;;4264630;27;20042;-62
2023/10/04 02:33:47;;;;;;;11.95;2.60;;;14.90;98.80;;;;;;4264393;27;20046;-61
2023/10/04 02:35:50;;;;;;;11.15;3.17;;;14.90;99.10;;;;;;4264799;27;20070;-60
2023/10/04 02:37:54;;;;;;;8.07;2.42;;;14.90;99.20;;;;;;4246146;27;20082;-61
2023/10/04 02:39:57;;;;;;;8.27;2.88;;;15.00;99.20;;;;;;4264726;27;20166;-61
2023/10/04 02:42:00;;;;;;;11.55;2.72;;;14.90;99.10;;;;;;4264671;27;20046;-61
2023/10/04 02:44:02;;;;;;;9.60;2.72;;;15.00;99.30;;;;;;4264418;27;20118;-61
2023/10/04 02:46:06;;;;;;;8.07;2.50;;;14.90;99.40;;;;;;4264581;27;20042;-61
2023/10/04 02:48:10;;;;;;;9.95;2.65;;;15.00;99.40;;;;;;4263917;27;20480;-61
2023/10/04 02:50:13;;;;;;;20.55;2.97;;;14.90;99.30;;;;;;4264332;27;20051;-61
2023/10/04 02:52:15;;;;;;;14.23;2.72;;;14.90;99.30;;;;;;4264134;27;20053;-61
2023/10/04 02:54:17;;;;;;;9.32;2.85;;;14.80;99.00;;;;;;4264091;27;20122;-61
2023/10/04 02:56:19;;;;;;;12.68;3.03;;;14.80;99.50;;;;;;4264209;27;20046;-61
2023/10/04 02:58:24;;;;;;;6.85;2.53;;;14.70;99.40;;;;;;4264387;27;20051;-61
2023/10/04 03:00:26;;;;;;;10.30;2.92;;;14.70;99.60;;;;;;4264535;27;20047;-62
2023/10/04 03:02:30;;;;;;;11.30;3.00;;;14.80;99.80;;;;;;4263900;27;20039;-62
2023/10/04 03:04:32;;;;;;;8.88;2.45;;;14.70;99.40;;;;;;4264328;27;20058;-61
2023/10/04 03:06:34;;;;;;;9.52;2.88;;;14.80;99.70;;;;;;4264143;27;20050;-60
2023/10/04 03:08:37;;;;;;;10.07;2.90;;;14.80;99.80;;;;;;4264433;27;20047;-60
2023/10/04 03:10:40;;;;;;;15.38;2.88;;;14.80;99.60;;;;;;4264610;27;20484;-60
2023/10/04 03:12:44;;;;;;;16.75;3.63;;;14.70;99.90;;;;;;4264582;27;20050;-63
2023/10/04 03:14:47;;;;;;;8.27;2.38;;;14.70;99.70;;;;;;4263987;27;20122;-64
2023/10/04 03:16:49;;;;;;;10.50;2.30;;;14.70;99.40;;;;;;4263394;27;20041;-59
2023/10/04 03:18:52;;;;;;;13.05;3.40;;;14.70;99.40;;;;;;4264390;27;20054;-59
2023/10/04 03:21:10;;;;;;;10.40;2.83;;;14.70;99.50;;;;;;4264205;27;20107;-60
2023/10/04 03:23:12;;;;;;;13.32;2.95;;;14.70;99.50;;;;;;4264354;27;20046;-59
2023/10/04 03:25:15;;;;;;;11.18;3.15;;;14.70;99.70;;;;;;4264237;27;20054;-64
2023/10/04 03:27:24;;;;;;;11.63;3.15;;;14.70;99.50;;;;;;4264085;27;20556;-59
2023/10/04 03:29:28;;;;;;;12.38;3.08;;;14.70;99.70;;;;;;4264305;27;20145;-59
2023/10/04 03:31:33;;;;;;;16.85;3.28;;;14.60;99.50;;;;;;4263679;27;20049;-60
2023/10/04 03:33:38;;;;;;;15.45;3.35;;;14.60;99.60;;;;;;4263831;27;20039;-62
2023/10/04 03:35:47;;;;;;;9.38;2.97;;;14.70;99.80;;;;;;4264006;27;20130;-61
2023/10/04 03:37:58;;;;;;;11.57;3.13;;;14.70;99.80;;;;;;4263878;27;20541;-61
2023/10/04 03:40:00;;;;;;;13.05;3.25;;;14.50;99.60;;;;;;4263836;27;20244;-62
2023/10/04 03:42:03;;;;;;;12.70;2.45;;;14.50;99.90;;;;;;4263881;27;20051;-61
2023/10/04 03:44:06;;;;;;;12.48;3.10;;;14.50;99.90;;;;;;4263779;27;20047;-60
2023/10/04 03:46:17;;;;;;;12.23;2.88;;;14.50;99.90;;;;;;4263897;27;20126;-61
2023/10/04 03:48:21;;;;;;;14.40;3.22;;;14.50;99.90;;;;;;4263799;27;20047;-61
2023/10/04 03:50:24;;;;;;;10.98;3.15;;;14.50;99.90;;;;;;4264049;27;20051;-65
2023/10/04 03:52:28;;;;;;;13.60;3.33;;;14.50;99.90;;;;;;4263538;27;20050;-60
2023/10/04 03:54:30;;;;;;;16.03;3.37;;;14.50;99.90;;;;;;4263672;27;20389;-60
2023/10/04 03:56:33;;;;;;;12.18;3.05;;;14.50;99.90;;;;;;4263904;27;20075;-63
2023/10/04 03:58:36;;;;;;;15.07;3.05;;;14.60;99.90;;;;;;4263699;27;20107;-59
2023/10/04 04:00:39;;;;;;;11.75;2.65;;;14.50;99.90;;;;;;4263480;27;20043;-59
2023/10/04 04:02:42;;;;;;;9.85;2.70;;;14.50;99.90;;;;;;4263807;27;20046;-59
2023/10/04 04:04:45;;;;;;;16.60;3.05;;;14.50;99.90;;;;;;4263814;27;20050;-59
2023/10/04 04:06:49;;;;;;;14.02;2.78;;;14.50;99.90;;;;;;4263697;27;20055;-58
2023/10/04 04:08:55;;;;;;;10.25;2.72;;;14.60;99.90;;;;;;4263711;27;20051;-58
2023/10/04 04:10:57;;;;;;;10.02;2.90;;;14.50;99.90;;;;;;4263652;27;20074;-59
2023/10/04 04:13:00;;;;;;;11.48;2.95;;;14.50;99.90;;;;;;4263867;27;20043;-59
2023/10/04 04:15:03;;;;;;;14.27;2.83;;;14.50;99.90;;;;;;4263080;27;20043;-62
2023/10/04 04:17:05;;;;;;;12.82;3.17;;;14.50;99.90;;;;;;4263676;27;20423;-59
2023/10/04 04:19:07;;;;;;;10.13;3.25;;;14.50;99.90;;;;;;4263696;27;20178;-59
2023/10/04 04:21:10;;;;;;;13.35;3.58;;;14.50;99.90;;;;;;4263861;27;20043;-59
2023/10/04 04:23:13;;;;;;;16.35;3.05;;;14.50;99.90;;;;;;4263649;27;20038;-59
2023/10/04 04:25:19;;;;;;;14.50;2.50;;;14.40;99.90;;;;;;4264040;27;20545;-59
2023/10/04 04:27:22;;;;;;;8.65;2.70;;;14.40;99.90;;;;;;4263868;27;20484;-61
2023/10/04 04:29:25;;;;;;;12.07;2.63;;;14.40;99.90;;;;;;4265571;27;20043;-59
2023/10/04 04:31:27;;;;;;;11.50;2.63;;;14.40;99.90;;;;;;4248443;27;20043;-58
2023/10/04 04:33:30;;;;;;;12.20;2.72;;;14.30;99.90;;;;;;4266418;27;20046;-59
2023/10/04 04:37:36;;;;;;;9.88;3.30;;;14.30;99.90;;;;;;4266595;27;20050;-61
2023/10/04 04:39:40;;;;;;;15.57;3.47;;;14.30;99.90;;;;;;4266364;27;20046;-61
2023/10/04 04:41:44;;;;;;;13.20;2.90;;;14.30;99.90;;;;;;4266530;27;20158;-61
2023/10/04 04:43:47;;;;;;;11.02;3.08;;;14.30;99.90;;;;;;4266092;27;20143;-61
2023/10/04 04:45:53;;;;;;;12.98;3.42;;;14.20;99.90;;;;;;4266577;27;20042;-61
2023/10/04 04:47:56;;;;;;;10.38;3.35;;;14.20;99.90;;;;;;4266213;27;20117;-60
2023/10/04 04:49:59;;;;;;;8.80;2.50;;;14.20;99.90;;;;;;4266611;27;20041;-60
2023/10/04 04:52:05;;;;;;;14.20;3.08;;;14.30;99.90;;;;;;4266057;27;20470;-61
2023/10/04 04:54:07;;;;;;;13.63;3.17;;;14.20;99.90;;;;;;4266308;27;20046;-62
2023/10/04 04:56:14;;;;;;;12.57;3.03;;;14.20;99.90;;;;;;4266165;27;20046;-60
2023/10/04 04:58:21;;;;;;;9.57;2.70;;;14.20;99.90;;;;;;4265851;27;20070;-61
2023/10/04 05:00:36;;;;;;;15.68;2.97;;;14.20;99.90;;;;;;4266523;27;20368;-61
2023/10/04 05:02:38;;;;;;;9.40;2.42;;;14.20;99.90;;;;;;4266141;27;20054;-60
2023/10/04 05:04:40;;;;;;;8.90;2.92;;;14.20;99.90;;;;;;4266223;27;20106;-62
2023/10/04 05:06:42;;;;;;;10.00;3.13;;;14.20;99.90;;;;;;4266170;27;20043;-61
2023/10/04 05:08:44;;;;;;;13.98;2.63;;;14.20;99.90;;;;;;4266088;27;20050;-60
2023/10/04 05:10:50;;;;;;;12.10;2.85;;;14.20;99.90;;;;;;4265849;27;20067;-61
2023/10/04 05:12:53;;;;;;;12.25;3.38;;;14.20;99.90;;;;;;4265910;27;20054;-60
2023/10/04 05:14:57;;;;;;;13.50;3.67;;;14.20;99.90;;;;;;4266031;27;20051;-60
2023/10/04 05:16:59;;;;;;;15.27;2.83;;;14.20;99.90;;;;;;4265942;27;20045;-60
2023/10/04 05:19:04;;;;;;;12.55;3.20;;;14.10;99.90;;;;;;4265982;27;20077;-61
2023/10/04 05:21:14;;;;;;;9.85;2.50;;;14.10;99.90;;;;;;4247929;27;20066;-61
2023/10/04 05:23:17;;;;;;;10.32;2.97;;;14.20;99.90;;;;;;4265789;27;20430;-61
2023/10/04 05:25:22;;;;;;;9.07;2.47;;;14.10;99.90;;;;;;4265867;27;20042;-61
2023/10/04 05:27:24;;;;;;;;;;;14.10;99.90;;;;;;4265998;27;20099;-61
2023/10/04 05:29:26;;;;;;;13.25;3.70;;;14.10;99.90;;;;;;4265726;27;19964;-59
2023/10/04 05:31:30;;;;;;;18.88;3.30;;;14.10;99.90;;;;;;4265693;27;20047;-60
2023/10/04 05:33:33;;;;;;;10.77;2.63;;;14.00;99.90;;;;;;4265557;27;20070;-60
2023/10/04 05:35:36;;;;;;;16.63;3.25;;;14.00;99.90;;;;;;4265643;27;20050;-60
2023/10/04 05:37:38;;;;;;;13.52;3.03;;;14.00;99.90;;;;;;4265449;27;20115;-61
2023/10/04 05:39:40;;;;;;;14.90;3.55;;;14.00;99.90;;;;;;4246823;27;20118;-60
2023/10/04 05:41:43;;;;;;;10.68;2.80;;;14.00;99.90;;;;;;4265420;27;20049;-61
2023/10/04 05:43:45;;;;;;;13.68;3.47;;;14.00;99.90;;;;;;4265338;27;20051;-58
2023/10/04 05:45:47;;;;;;;19.38;3.53;;;14.10;99.90;;;;;;4247369;27;20504;-58
2023/10/04 05:47:52;;;;;;;14.52;3.10;;;14.10;99.90;;;;;;4265594;27;20129;-59
2023/10/04 05:49:55;;;;;;;12.82;3.10;;;14.10;99.90;;;;;;4265692;27;20051;-61
2023/10/04 05:51:58;;;;;;;9.98;2.78;;;14.10;99.90;;;;;;4246706;27;20051;-60
2023/10/04 05:54:02;;;;;;;11.93;2.55;;;14.00;99.90;;;;;;4248037;27;20052;-61
2023/10/04 05:56:05;;;;;;;12.30;3.60;;;14.10;99.90;;;;;;4246641;27;20425;-61
2023/10/04 05:58:07;;;;;;;17.73;3.72;;;14.10;99.90;;;;;;4247891;27;20512;-61
2023/10/04 06:02:32;;;;;;;13.50;3.47;;;14.10;99.90;;;;;;4248294;27;20075;-62
2023/10/04 06:04:38;;;;;;;11.88;3.42;;;14.00;99.90;;;;;;4248097;27;20158;-59
2023/10/04 06:06:44;;;;;;;10.90;3.05;;;14.00;99.90;;;;;;4248137;27;20047;-61
2023/10/04 06:08:46;;;;;;;10.57;3.50;;;14.00;99.90;;;;;;4248199;27;20044;-61
2023/10/04 06:10:51;;;;;;;22.30;3.35;;;14.00;99.90;;;;;;4248070;27;20050;-61
2023/10/04 06:12:56;;;;;;;14.52;2.70;;;14.10;99.90;;;;;;4246793;27;20509;-61
2023/10/04 06:14:59;;;;;;;13.88;2.72;;;14.00;99.90;;;;;;4246655;27;20051;-59
2023/10/04 06:17:02;;;;;;;11.80;3.35;;;14.10;99.90;;;;;;4247591;27;20047;-59
2023/10/04 06:19:04;;;;;;;15.48;3.10;;;14.20;99.90;;;;;;4247871;27;20054;-58
2023/10/04 06:21:28;;;;;;;11.45;2.85;;;14.10;99.90;;;;;;4248116;27;20118;-59
2023/10/04 06:23:31;;;;;;;13.18;3.35;;;14.20;99.90;;;;;;4247908;27;20100;-59
2023/10/04 06:25:35;;;;;;;9.80;3.10;;;14.20;99.90;;;;;;4247286;27;20058;-59
2023/10/04 06:27:37;;;;;;;12.00;3.13;;;14.30;99.90;;;;;;4247850;27;20078;-59
2023/10/04 06:29:40;;;;;;;11.25;2.95;;;14.30;99.90;;;;;;4247864;27;20445;-59
2023/10/04 06:31:42;;;;;;;14.25;2.88;;;14.40;99.90;;;;;;4247783;27;20487;-59
2023/10/04 06:33:45;;;;;;;13.40;2.97;;;14.30;99.90;;;;;;4247607;27;20039;-59
2023/10/04 06:35:47;;;;;;;10.95;3.00;;;14.30;99.90;;;;;;4247463;27;20156;-58
2023/10/04 06:37:54;;;;;;;16.10;3.58;;;14.30;99.90;;;;;;4247422;27;20107;-59
2023/10/04 06:39:56;;;;;;;13.57;3.50;;;14.40;99.90;;;;;;4247188;27;20054;-59
2023/10/04 06:41:58;;;;;;;16.95;3.17;;;14.40;99.90;;;;;;4246432;27;20039;-60
2023/10/04 06:44:00;;;;;;;10.25;2.70;;;14.40;99.90;;;;;;4247844;27;20039;-59
2023/10/04 06:46:03;;;;;;;11.63;3.15;;;14.40;99.90;;;;;;4247634;27;20055;-59
2023/10/04 06:48:06;;;;;;;12.38;3.40;;;14.40;99.90;;;;;;4247161;27;20047;-60
2023/10/04 06:50:09;;;;;;;15.27;3.75;;;14.40;99.90;;;;;;4247611;27;20054;-59
2023/10/04 06:52:11;;;;;;;14.77;3.55;;;14.40;99.90;;;;;;4261037;27;20051;-59
2023/10/04 06:54:15;;;;;;;12.52;3.00;;;14.50;99.90;;;;;;4263960;27;20051;-59
2023/10/04 06:56:17;;;;;;;15.02;3.70;;;14.50;99.90;;;;;;4264460;27;20452;-59
2023/10/04 06:58:21;;;;;;;14.73;3.92;;;14.50;99.90;;;;;;4264324;27;20465;-60
2023/10/04 07:00:26;;;;;;;12.40;3.10;;;14.60;99.90;;;;;;4264413;27;20125;-61
2023/10/04 07:02:28;;;;;;;16.17;3.67;;;14.60;99.90;;;;;;4264444;27;20057;-61
2023/10/04 07:04:30;;;;;;;17.48;3.25;;;14.60;99.90;;;;;;4264499;27;20123;-59
2023/10/04 07:06:33;;;;;;;13.52;2.85;;;14.60;99.90;;;;;;4264536;27;20046;-60
2023/10/04 07:08:35;;;;;;;11.85;3.35;;;14.70;99.90;;;;;;4263950;27;20046;-59
2023/10/04 07:10:39;;;;;;;14.25;3.45;;;14.80;99.90;;;;;;4264538;27;20504;-58
2023/10/04 07:12:43;;;;;;;15.65;3.22;;;14.80;99.90;;;;;;4264255;27;20522;-62
2023/10/04 07:14:45;;;;;;;16.15;3.63;;;14.90;99.90;;;;;;4264216;27;20053;-62
2023/10/04 07:16:48;;;;;;;12.27;3.00;;;15.00;99.90;;;;;;4264167;27;20066;-62
2023/10/04 07:18:50;;;;;;;11.20;3.95;;;15.10;99.90;;;;;;4264086;27;20039;-62
2023/10/04 07:20:53;;;;;;;8.52;2.90;;;15.20;99.80;;;;;;4264212;27;20071;-62
2023/10/04 07:22:59;;;;;;;13.32;3.67;;;15.30;99.90;;;;;;4246014;28;20118;-61
2023/10/04 07:25:01;;;;;;;19.73;4.28;;;15.40;99.50;;;;;;4264147;27;20065;-63
2023/10/04 07:27:04;;;;;;;14.30;3.30;;;15.40;99.40;;;;;;4264313;27;20085;-61
2023/10/04 07:29:07;;;;;;;11.45;3.20;;;15.50;99.40;;;;;;4245751;28;20582;-61
2023/10/04 07:31:10;;;;;;;12.05;3.15;;;15.50;99.40;;;;;;4264240;27;20047;-62
2023/10/04 07:33:12;;;;;;;19.40;4.72;;;15.60;99.30;;;;;;4264343;27;20042;-62
2023/10/04 07:35:18;;;;;;;21.30;3.92;;;15.60;99.30;;;;;;4264320;27;20548;-61
2023/10/04 07:37:21;;;;;;;15.82;3.70;;;15.70;99.10;;;;;;4263870;27;20081;-62
2023/10/04 07:39:23;;;;;;;13.00;3.38;;;15.70;98.90;;;;;;4264419;27;20125;-60
2023/10/04 07:41:27;;;;;;;27.90;4.70;;;15.70;99.10;;;;;;4264132;27;20066;-61
2023/10/04 07:43:31;;;;;;;13.32;3.50;;;15.80;98.90;;;;;;4264252;27;20047;-61
2023/10/04 07:45:34;;;;;;;14.10;3.75;;;15.80;98.90;;;;;;4264063;27;20541;-59
2023/10/04 07:47:37;;;;;;;14.93;3.97;;;15.80;98.70;;;;;;4264356;27;20050;-60
2023/10/04 07:49:39;;;;;;;17.17;3.67;;;15.90;98.90;;;;;;4264246;27;20445;-60
2023/10/04 07:51:42;;;;;;;14.98;3.45;;;15.90;98.50;;;;;;4263645;27;20110;-60
2023/10/04 07:53:45;;;;;;;14.68;3.67;;;16.00;98.90;;;;;;4263927;27;20411;-60
2023/10/04 07:55:49;;;;;;;15.57;3.55;;;16.00;99.00;;;;;;4263886;27;20118;-60
2023/10/04 07:57:52;;;;;;;15.80;3.63;;;16.10;98.70;;;;;;4264141;27;20147;-62
2023/10/04 07:59:56;;;;;;;15.57;4.13;;;16.20;98.50;;;;;;4245664;27;20471;-63
2023/10/04 08:01:58;;;;;;;25.45;4.43;;;16.20;98.40;;;;;;4264411;27;20043;-62
2023/10/04 08:04:00;;;;;;;11.20;3.58;;;16.20;98.50;;;;;;4248992;27;20082;-61
2023/10/04 08:06:08;;;;;;;15.57;4.18;;;16.30;98.40;;;;;;4267251;27;20063;-61
2023/10/04 08:08:10;;;;;;;11.88;3.55;;;16.30;98.30;;;;;;4267173;27;20053;-61
2023/10/04 08:10:13;;;;;;;19.15;3.83;;;16.40;98.20;;;;;;4248618;27;20130;-61
2023/10/04 08:12:19;;;;;;;15.38;4.47;;;16.40;98.10;;;;;;4267027;27;20091;-60
2023/10/04 08:14:23;;;;;;;16.00;3.70;;;16.50;98.10;;;;;;4243337;27;20051;-61
2023/10/04 08:16:27;;;;;;;15.07;4.38;;;16.50;98.00;;;;;;4263073;27;20048;-61
2023/10/04 08:18:29;;;;;;;20.67;4.00;;;16.50;97.90;;;;;;4263813;27;20050;-60
2023/10/04 08:20:33;;;;;;;14.43;4.05;;;16.60;97.70;;;;;;4266318;27;20066;-60
2023/10/04 08:22:37;;;;;;;15.35;3.65;;;16.60;97.90;;;;;;4267168;27;20103;-61
2023/10/04 08:24:40;;;;;;;16.52;3.88;;;16.60;98.00;;;;;;4267141;27;20491;-61
2023/10/04 08:26:43;;;;;;;19.63;4.25;;;16.70;97.60;;;;;;4266764;27;20038;-61
2023/10/04 08:28:46;;;;;;;17.52;4.53;;;16.80;97.70;;;;;;4266717;27;20042;-60
2023/10/04 08:30:51;;;;;;;23.90;4.70;;;16.80;97.60;;;;;;4266799;27;20099;-61
2023/10/04 08:32:55;;;;;;;34.35;5.40;;;16.80;97.40;;;;;;4267011;27;20473;-60
2023/10/04 08:34:59;;;;;;;26.90;4.55;;;16.90;97.20;;;;;;4248478;27;20051;-62
2023/10/04 08:37:02;;;;;;;31.40;4.85;;;16.90;97.10;;;;;;4249798;27;20058;-61
2023/10/04 08:39:10;;;;;;;29.30;5.18;;;16.90;97.10;;;;;;4267756;27;20499;-60
2023/10/04 08:41:16;;;;;;;21.77;4.95;;;16.90;96.90;;;;;;4248643;27;20047;-61
2023/10/04 08:43:18;;;;;;;15.32;3.75;;;16.90;96.80;;;;;;4266463;27;20123;-60
2023/10/04 08:45:21;;;;;;;19.23;4.97;;;17.00;96.80;;;;;;4266411;27;20496;-59
2023/10/04 08:47:24;;;;;;;22.77;4.72;;;17.00;97.00;;;;;;4266470;27;20047;-59
2023/10/04 08:49:42;;;;;;;18.40;4.25;;;17.10;96.80;;;;;;4266514;27;20138;-60
2023/10/04 08:51:51;;;;;;;17.88;4.43;;;17.10;96.80;;;;;;4248008;27;20489;-60
2023/10/04 08:53:59;;;;;;;21.15;4.50;;;17.20;96.70;;;;;;4266203;27;20046;-60
2023/10/04 08:56:08;;;;;;;17.88;4.68;;;17.20;96.50;;;;;;4248110;27;20051;-60
2023/10/04 08:58:11;;;;;;;15.82;4.03;;;17.30;96.60;;;;;;4266375;27;20039;-61
2023/10/04 09:00:14;;;;;;;21.55;4.82;;;17.30;96.30;;;;;;4266523;27;20051;-60
2023/10/04 09:02:31;;;;;;;13.18;4.32;;;17.30;96.30;;;;;;4266355;27;20057;-62
2023/10/04 09:04:36;;;;;;;17.38;4.22;;;17.30;96.10;;;;;;4266086;27;20061;-61
2023/10/04 09:06:38;;;;;;;17.15;4.10;;;17.40;96.20;;;;;;4264435;27;20411;-61
2023/10/04 09:08:41;;;;;;;17.70;3.75;;;17.40;96.00;;;;;;4260355;27;20039;-61
2023/10/04 09:10:43;;;;;;;12.90;3.80;;;17.50;95.90;;;;;;4248115;27;20121;-61
2023/10/04 09:12:47;;;;;;;22.48;4.32;;;17.50;95.90;;;;;;4258280;27;20046;-61
2023/10/04 09:15:00;;;;;;;18.25;4.57;;;17.50;95.90;;;;;;4253526;27;20050;-62
2023/10/04 09:17:05;;;;;;;14.30;3.90;;;17.60;95.70;;;;;;4257530;27;20053;-62
2023/10/04 09:19:08;;;;;;;15.85;4.57;;;17.60;95.80;;;;;;4261245;27;20039;-61
2023/10/04 09:21:16;;;;;;;15.93;3.93;;;17.60;95.60;;;;;;4261713;27;20138;-61
2023/10/04 09:23:22;;;;;;;18.48;4.25;;;17.70;95.70;;;;;;4260971;27;20112;-60
2023/10/04 09:25:34;;;;;;;12.75;3.67;;;17.70;95.70;;;;;;4262037;27;20043;-61
2023/10/04 09:27:37;;;;;;;14.77;3.83;;;17.80;95.40;;;;;;4264473;27;20058;-60
2023/10/04 09:29:39;;;;;;;18.08;4.20;;;17.80;95.30;;;;;;4268309;27;20057;-61
2023/10/04 09:31:50;;;;;;;14.45;3.95;;;17.90;95.80;;;;;;4265995;27;20107;-61
2023/10/04 09:33:56;;;;;;;19.67;4.38;;;17.90;95.00;;;;;;4265486;27;20125;-61
2023/10/04 09:35:59;;;;;;;19.30;4.30;;;17.90;95.40;;;;;;4265859;27;20067;-63
2023/10/04 09:38:15;;;;;;;25.38;5.57;;;17.90;95.30;;;;;;4265707;27;20039;-60
2023/10/04 09:40:23;;;;;;;17.40;4.32;;;18.00;95.20;;;;;;4265601;27;20056;-60
2023/10/04 09:42:26;;;;;;;15.18;3.55;;;18.00;95.00;;;;;;4265797;27;20042;-61
2023/10/04 09:44:29;;;;;;;16.20;4.47;;;18.10;95.10;;;;;;4265522;27;20434;-60
2023/10/04 09:46:48;;;;;;;16.80;4.68;;;18.10;94.80;;;;;;4265730;27;20050;-60
2023/10/04 09:48:51;;;;;;;17.58;4.93;;;18.10;94.90;;;;;;4265255;27;20042;-60
2023/10/04 09:50:59;;;;;;;21.20;4.78;;;18.20;95.40;;;;;;4265305;27;20092;-61
2023/10/04 09:53:01;;;;;;;11.75;3.55;;;18.20;94.80;;;;;;4265420;27;20130;-61
2023/10/04 09:55:08;;;;;;;20.35;4.65;;;18.30;94.90;;;;;;4265708;27;20103;-61
2023/10/04 09:57:12;;;;;;;20.02;4.43;;;18.30;94.90;;;;;;4265437;27;20210;-61
2023/10/04 09:59:19;;;;;;;16.33;4.07;;;18.30;94.90;;;;;;4265557;27;20042;-61
2023/10/04 10:01:25;;;;;;;21.80;4.22;;;18.30;94.90;;;;;;4265967;27;20043;-61
2023/10/04 10:03:33;;;;;;;15.10;4.28;;;18.40;95.00;;;;;;4256157;27;20047;-61
2023/10/04 10:05:36;;;;;;;15.13;4.43;;;18.50;94.70;;;;;;4248099;27;20468;-60
2023/10/04 10:07:41;;;;;;;19.83;4.28;;;18.50;94.40;;;;;;4249983;27;20047;-62
2023/10/04 10:09:57;;;;;;;14.38;4.72;;;18.50;94.50;;;;;;4248111;27;20043;-60
2023/10/04 10:12:08;;;;;;;21.42;4.47;;;18.60;94.40;;;;;;4248376;27;20500;-60
2023/10/04 10:14:12;;;;;;;17.08;5.32;;;18.60;94.40;;;;;;4254515;27;20045;-60
2023/10/04 10:16:16;;;;;;;22.77;5.00;;;18.60;94.60;;;;;;4258127;27;20034;-61
2023/10/04 10:18:18;;;;;;;16.67;4.68;;;18.60;94.70;;;;;;4253442;27;20103;-63
2023/10/04 10:20:21;;;;;;;16.88;5.25;;;18.70;94.70;;;;;;4264554;27;20158;-62
2023/10/04 10:22:23;;;;;;;17.80;4.68;;;18.60;94.20;;;;;;4259690;27;20391;-61
2023/10/04 10:24:26;;;;;;;16.10;4.03;;;18.70;93.90;;;;;;4251608;27;20385;-60
2023/10/04 10:26:29;;;;;;;9.65;3.60;;;18.70;93.90;;;;;;4263018;27;20428;-60
2023/10/04 10:28:33;;;;;;;20.40;5.40;;;18.70;94.30;;;;;;4265175;27;20541;-61
2023/10/04 10:30:36;;;;;;;17.25;4.65;;;18.80;93.80;;;;;;4262969;27;20061;-61
2023/10/04 10:32:49;;;;;;;17.40;4.45;;;18.70;93.40;;;;;;4263588;27;20404;-61
2023/10/04 10:34:56;;;;;;;14.32;4.05;;;18.90;93.60;;;;;;4251243;27;20107;-61
2023/10/04 10:37:09;;;;;;;12.15;3.53;;;18.90;93.40;;;;;;4247947;27;20042;-61
2023/10/04 10:39:21;;;;;;;15.65;3.90;;;19.00;93.70;;;;;;4256178;27;20081;-60
2023/10/04 10:42:03;;;;;;;13.10;3.72;;;19.00;93.60;;;;;;4264611;27;20042;-61
2023/10/04 10:44:30;;;;;;;12.43;3.72;;;19.00;93.10;;;;;;4262653;27;20095;-61
2023/10/04 10:46:32;;;;;;;12.00;3.92;;;18.90;92.70;;;;;;4247421;27;20059;-60